Time;durP1;ratioP1;P1;durP2;ratioP2;P2;SDS_P1;SDS_P2;PMS_P1;PMS_P2;Temp;Humidity;BMP_temperature;BMP_pressure;BME280_temperature;BME280_humidity;BME280_pressure;Samples;Min_cycle;Max_cycle;Signal;HPM_P1;HPM_P2
2022/09/05 00:00:55;;;;;;;3.95;1.80;;;;;;;14.79;100.00;96331.72;4963214;28;24781;-73
2022/09/05 00:03:28;;;;;;;3.90;1.70;;;;;;;14.67;100.00;96336.03;4970624;28;25022;-75
2022/09/05 00:06:04;;;;;;;3.03;1.90;;;;;;;14.73;100.00;96331.22;4971005;28;24433;-74
2022/09/05 00:08:46;;;;;;;10.30;1.85;;;;;;;14.76;100.00;96323.19;4965479;28;25175;-74
2022/09/05 00:11:19;;;;;;;2.60;1.92;;;;;;;14.69;100.00;96321.13;4970814;28;25010;-74
2022/09/05 00:13:57;;;;;;;1.70;1.60;;;;;;;14.60;100.00;96325.19;4968934;28;24438;-74
2022/09/05 00:16:46;;;;;;;2.50;2.00;;;;;;;14.63;100.00;96317.16;4968655;28;24457;-74
2022/09/05 00:19:24;;;;;;;4.03;1.87;;;;;;;14.70;100.00;96323.63;4967310;28;24496;-74
2022/09/05 00:22:02;;;;;;;4.03;1.92;;;;;;;14.73;100.00;96320.81;4964125;28;24453;-74
2022/09/05 00:24:46;;;;;;;5.72;2.13;;;;;;;14.77;100.00;96311.00;4969476;28;24979;-74
2022/09/05 00:27:19;;;;;;;2.23;1.80;;;;;;;14.65;100.00;96320.53;4970786;28;25002;-74
2022/09/05 00:30:01;;;;;;;3.10;2.10;;;;;;;14.52;100.00;96317.91;4970536;28;24436;-75
2022/09/05 00:32:42;;;;;;;2.40;1.83;;;;;;;14.48;100.00;96331.25;4964928;28;24795;-73
2022/09/05 00:35:31;;;;;;;2.58;2.10;;;;;;;14.51;100.00;96320.66;4966591;28;24430;-74
2022/09/05 00:38:10;;;;;;;4.30;2.08;;;;;;;14.52;100.00;96327.50;4970534;28;24978;-74
2022/09/05 00:40:40;;;;;;;2.20;1.73;;;;;;;14.48;100.00;96310.41;4963320;28;25018;-74
2022/09/05 00:43:12;;;;;;;3.58;2.30;;;;;;;14.55;100.00;96326.47;4970057;28;24800;-75
2022/09/05 00:45:46;;;;;;;2.65;2.17;;;;;;;14.44;100.00;96328.03;4964106;28;24795;-74
2022/09/05 00:48:20;;;;;;;4.65;2.10;;;;;;;14.45;100.00;96318.44;4970414;28;24440;-74
2022/09/05 00:50:59;;;;;;;3.58;2.08;;;;;;;14.52;100.00;96317.09;4965059;28;24446;-75
2022/09/05 00:53:36;;;;;;;3.65;2.15;;;;;;;14.83;100.00;96317.53;4969756;28;24434;-74
2022/09/05 00:56:07;;;;;;;4.60;1.60;;;;;;;14.83;100.00;96310.56;4970576;28;24449;-73
2022/09/05 00:58:47;;;;;;;4.00;1.80;;;;;;;14.33;100.00;96322.72;4960293;28;24442;-73
2022/09/05 01:01:27;;;;;;;2.22;1.80;;;;;;;14.20;100.00;96321.88;4963856;28;24442;-73
2022/09/05 01:04:09;;;;;;;1.80;1.42;;;;;;;14.20;100.00;96311.47;4965330;28;24444;-73
2022/09/05 01:06:48;;;;;;;3.08;2.03;;;;;;;14.19;100.00;96307.19;4959339;28;24789;-74
2022/09/05 01:09:23;;;;;;;2.63;1.95;;;;;;;14.21;100.00;96300.94;4962837;28;24437;-74
2022/09/05 01:12:00;;;;;;;2.25;1.77;;;;;;;14.07;100.00;96306.28;4970188;28;24449;-75
2022/09/05 01:14:58;;;;;;;2.40;1.98;;;;;;;13.98;100.00;96305.13;4970560;28;24641;-74
2022/09/05 01:17:42;;;;;;;3.70;1.93;;;;;;;14.01;100.00;96304.06;4969195;28;24461;-74
2022/09/05 01:20:28;;;;;;;3.17;1.83;;;;;;;14.03;100.00;96300.44;4969444;28;24437;-73
2022/09/05 01:23:09;;;;;;;2.42;1.92;;;;;;;13.98;100.00;96301.69;4972669;28;24440;-73
2022/09/05 01:25:51;;;;;;;2.65;1.85;;;;;;;14.02;100.00;96303.97;4963231;28;24473;-74
2022/09/05 01:28:23;;;;;;;1.92;1.73;;;;;;;14.05;100.00;96297.72;4968655;28;24468;-74
2022/09/05 01:30:57;;;;;;;2.80;2.10;;;;;;;14.08;100.00;96304.50;4964110;28;24444;-73
2022/09/05 01:33:36;;;;;;;2.97;1.80;;;;;;;14.12;100.00;96303.34;4968822;28;24438;-73
2022/09/05 01:36:26;;;;;;;2.30;1.75;;;;;;;14.12;100.00;96300.75;4969504;28;24456;-74
2022/09/05 01:39:02;;;;;;;2.53;2.00;;;;;;;14.10;100.00;96302.63;4967327;28;24448;-73
2022/09/05 01:41:38;;;;;;;2.20;1.70;;;;;;;14.13;100.00;96305.03;4972041;28;24448;-73
2022/09/05 01:44:38;;;;;;;3.55;1.90;;;;;;;14.12;100.00;96293.75;4974043;28;24872;-74
2022/09/05 01:47:19;;;;;;;2.53;2.00;;;;;;;14.24;100.00;96295.53;4969286;28;24437;-74
2022/09/05 01:49:57;;;;;;;1.60;1.50;;;;;;;14.05;100.00;96295.09;4973886;28;24441;-73
2022/09/05 01:52:45;;;;;;;4.90;1.80;;;;;;;14.01;100.00;96293.66;4972919;28;25005;-74
2022/09/05 01:55:29;;;;;;;3.10;1.85;;;;;;;13.96;100.00;96296.56;4975232;28;25033;-74
2022/09/05 01:58:09;;;;;;;3.22;1.60;;;;;;;13.86;100.00;96297.28;4969718;28;24460;-74
2022/09/05 02:00:43;;;;;;;1.80;1.70;;;;;;;13.89;100.00;96302.31;4961933;28;24445;-74
2022/09/05 02:03:19;;;;;;;3.00;2.10;;;;;;;13.88;100.00;96301.47;4967390;28;24476;-74
2022/09/05 02:06:09;;;;;;;3.30;1.90;;;;;;;13.85;100.00;96306.06;4969784;28;24446;-74
2022/09/05 02:08:55;;;;;;;2.58;1.90;;;;;;;13.83;100.00;96298.34;4971397;28;24815;-74
2022/09/05 02:11:40;;;;;;;1.63;1.48;;;;;;;13.78;100.00;96295.22;4973237;28;24446;-74
2022/09/05 02:14:19;;;;;;;3.78;1.95;;;;;;;13.74;100.00;96305.00;4969995;28;24437;-74
2022/09/05 02:16:48;;;;;;;2.80;1.80;;;;;;;13.67;100.00;96303.75;4967221;28;25083;-74
2022/09/05 02:19:22;;;;;;;2.75;1.77;;;;;;;13.65;100.00;96302.19;4971262;28;24437;-74
2022/09/05 02:21:57;;;;;;;3.00;1.70;;;;;;;13.67;100.00;96301.13;4964474;28;24442;-73
2022/09/05 02:24:29;;;;;;;2.83;1.75;;;;;;;13.64;100.00;96303.09;4973069;28;24540;-74
2022/09/05 02:27:11;;;;;;;2.90;1.70;;;;;;;13.55;100.00;96294.97;4968214;28;25028;-73
2022/09/05 02:29:46;;;;;;;2.63;1.92;;;;;;;13.55;100.00;96304.56;4970666;28;24444;-74
2022/09/05 02:32:20;;;;;;;2.58;2.05;;;;;;;13.54;100.00;96295.91;4964295;28;24437;-74
2022/09/05 02:34:58;;;;;;;2.45;1.80;;;;;;;13.41;100.00;96302.03;4967788;28;24429;-75
2022/09/05 02:37:36;;;;;;;2.40;1.90;;;;;;;13.31;100.00;96300.03;4972929;28;24512;-74
2022/09/05 02:40:10;;;;;;;2.30;1.90;;;;;;;13.31;100.00;96292.25;4972374;28;24437;-73
2022/09/05 02:42:45;;;;;;;6.77;1.90;;;;;;;13.34;100.00;96304.19;4966365;28;24438;-73
2022/09/05 02:45:22;;;;;;;2.60;2.10;;;;;;;13.35;100.00;96302.41;4967960;28;25002;-74
2022/09/05 02:47:58;;;;;;;3.85;2.10;;;;;;;13.30;100.00;96297.53;4972041;28;24457;-73
2022/09/05 02:50:39;;;;;;;5.18;2.30;;;;;;;13.22;100.00;96303.19;4964386;28;24441;-74
2022/09/05 02:53:09;;;;;;;3.13;2.20;;;;;;;13.19;100.00;96302.56;4971263;28;25005;-73
2022/09/05 02:56:01;;;;;;;2.67;1.98;;;;;;;13.13;100.00;96293.41;4968509;28;24448;-74
2022/09/05 02:58:44;;;;;;;2.88;2.00;;;;;;;13.16;100.00;96300.16;4968623;28;24449;-74
2022/09/05 03:01:16;;;;;;;2.67;2.25;;;;;;;13.23;100.00;96291.88;4963151;28;24445;-73
2022/09/05 03:03:52;;;;;;;2.35;2.15;;;;;;;13.32;100.00;96287.88;4968771;28;24448;-74
2022/09/05 03:06:31;;;;;;;2.17;1.88;;;;;;;13.42;100.00;96291.53;4968697;28;24445;-74
2022/09/05 03:09:12;;;;;;;3.15;2.00;;;;;;;13.43;100.00;96284.56;4967601;28;24440;-74
2022/09/05 03:12:28;;;;;;;2.70;2.00;;;;;;;13.50;100.00;96289.25;4966983;28;24469;-74
2022/09/05 03:15:34;;;;;;;3.78;2.30;;;;;;;13.42;100.00;96288.06;4966589;28;24441;-74
2022/09/05 03:18:23;;;;;;;2.42;2.13;;;;;;;13.39;100.00;96285.69;4969776;28;24464;-74
2022/09/05 03:21:40;;;;;;;2.20;2.00;;;;;;;13.44;100.00;96296.63;4960749;28;24804;-73
2022/09/05 03:24:33;;;;;;;3.10;2.10;;;;;;;13.39;100.00;96285.69;4950966;28;24500;-73
2022/09/05 03:27:26;;;;;;;4.55;2.25;;;;;;;13.38;100.00;96292.66;4967591;28;24429;-73
2022/09/05 03:30:07;;;;;;;3.30;2.00;;;;;;;13.35;100.00;96289.41;4970883;28;24444;-74
2022/09/05 03:33:18;;;;;;;2.38;1.80;;;;;;;13.23;100.00;96285.81;4966527;28;24445;-73
2022/09/05 03:36:23;;;;;;;5.93;1.98;;;;;;;13.30;100.00;96284.50;4947380;28;24453;-74
2022/09/05 03:39:27;;;;;;;1.90;1.55;;;;;;;13.17;100.00;96283.63;4965912;28;24436;-74
2022/09/05 03:42:26;;;;;;;2.38;1.83;;;;;;;13.17;100.00;96284.47;4970844;28;25061;-74
2022/09/05 03:45:19;;;;;;;2.30;2.10;;;;;;;13.20;100.00;96283.41;4966493;28;24445;-74
2022/09/05 03:48:29;;;;;;;4.07;2.30;;;;;;;13.19;100.00;96282.56;4968894;28;24434;-73
2022/09/05 03:51:08;;;;;;;2.72;2.15;;;;;;;13.10;100.00;96288.38;4951332;28;24465;-74
2022/09/05 03:53:59;;;;;;;3.22;1.90;;;;;;;13.05;100.00;96293.91;4964989;28;24903;-74
2022/09/05 03:56:38;;;;;;;2.08;1.88;;;;;;;13.15;100.00;96282.88;4967481;28;24445;-74
2022/09/05 03:59:40;;;;;;;4.70;2.20;;;;;;;13.17;100.00;96281.84;4965183;28;25017;-74
2022/09/05 04:02:10;;;;;;;4.63;2.58;;;;;;;13.17;100.00;96279.25;4968415;28;24449;-74
2022/09/05 04:04:43;;;;;;;2.83;2.22;;;;;;;13.10;100.00;96282.34;4971027;28;24438;-73
2022/09/05 04:07:16;;;;;;;3.20;2.03;;;;;;;12.98;100.00;96273.59;4971008;28;24433;-73
2022/09/05 04:09:50;;;;;;;2.40;1.92;;;;;;;12.94;100.00;96275.53;4971125;28;24800;-74
2022/09/05 04:12:18;;;;;;;2.92;2.25;;;;;;;12.90;100.00;96275.81;4967198;28;24994;-74
2022/09/05 04:14:52;;;;;;;3.95;2.00;;;;;;;12.90;100.00;96274.03;4970925;28;24434;-74
2022/09/05 04:17:27;;;;;;;2.88;2.03;;;;;;;12.91;100.00;96277.50;4970774;28;24477;-74
2022/09/05 04:20:00;;;;;;;3.47;2.03;;;;;;;13.03;100.00;96271.50;4960852;28;24449;-74
2022/09/05 04:22:38;;;;;;;5.95;2.20;;;;;;;13.04;100.00;96278.38;4969765;28;25020;-73
2022/09/05 04:25:13;;;;;;;3.90;2.50;;;;;;;12.97;100.00;96282.28;4967999;28;24437;-74
2022/09/05 04:27:48;;;;;;;2.97;1.87;;;;;;;13.00;100.00;96288.13;4959863;28;24437;-74
2022/09/05 04:30:32;;;;;;;2.90;2.27;;;;;;;13.01;100.00;96278.56;4969431;28;24445;-74
2022/09/05 04:33:04;;;;;;;2.10;1.90;;;;;;;13.03;100.00;96279.31;4969973;28;24460;-74
2022/09/05 04:35:40;;;;;;;2.42;2.03;;;;;;;13.09;100.00;96276.31;4960817;28;24797;-72
2022/09/05 04:38:12;;;;;;;3.33;2.05;;;;;;;13.10;100.00;96279.75;4967089;28;24977;-72
2022/09/05 04:40:46;;;;;;;4.13;2.15;;;;;;;13.15;100.00;96282.88;4970338;28;25225;-73
2022/09/05 04:43:23;;;;;;;2.78;1.90;;;;;;;13.01;100.00;96286.38;4968206;28;24460;-73
2022/09/05 04:45:54;;;;;;;2.55;2.15;;;;;;;13.04;100.00;96289.59;4966089;28;24437;-74
2022/09/05 04:48:26;;;;;;;2.08;1.80;;;;;;;13.09;100.00;96294.53;4967494;28;24441;-72
2022/09/05 04:51:06;;;;;;;3.33;2.30;;;;;;;13.12;100.00;96290.88;4969642;28;24442;-73
2022/09/05 04:53:59;;;;;;;2.35;1.90;;;;;;;13.11;100.00;96297.03;4965469;28;24991;-73
2022/09/05 04:56:28;;;;;;;3.42;1.77;;;;;;;13.10;100.00;96285.78;4969460;28;24469;-73
2022/09/05 04:58:59;;;;;;;3.03;2.20;;;;;;;13.15;100.00;96291.50;4970754;28;24457;-73
2022/09/05 05:01:33;;;;;;;2.15;1.92;;;;;;;13.24;100.00;96284.94;4970497;28;24445;-73
2022/09/05 05:04:07;;;;;;;2.47;2.10;;;;;;;13.18;100.00;96299.13;4970634;28;24484;-73
2022/09/05 05:06:39;;;;;;;2.25;2.05;;;;;;;13.15;100.00;96295.88;4966338;28;24519;-73
2022/09/05 05:09:14;;;;;;;3.27;2.20;;;;;;;13.15;100.00;96298.50;4972187;28;24440;-72
2022/09/05 05:11:55;;;;;;;2.40;2.00;;;;;;;13.19;100.00;96306.00;4969346;28;24872;-73
2022/09/05 05:14:25;;;;;;;2.33;1.60;;;;;;;13.20;100.00;96301.63;4978450;28;24444;-73
2022/09/05 05:16:57;;;;;;;2.10;1.70;;;;;;;13.10;100.00;96304.00;4973417;28;24795;-73
2022/09/05 05:19:30;;;;;;;2.88;2.00;;;;;;;13.01;100.00;96307.16;4958035;28;24438;-73
2022/09/05 05:22:00;;;;;;;4.40;2.07;;;;;;;13.00;100.00;96310.72;4964788;28;24664;-73
2022/09/05 05:24:30;;;;;;;3.03;2.10;;;;;;;12.97;100.00;96309.13;4971597;28;24445;-73
2022/09/05 05:27:06;;;;;;;2.70;2.05;;;;;;;12.98;100.00;96316.00;4973004;28;24444;-73
2022/09/05 05:29:43;;;;;;;2.28;2.05;;;;;;;13.07;100.00;96311.97;4966101;28;24438;-73
2022/09/05 05:32:17;;;;;;;4.35;2.13;;;;;;;13.17;100.00;96320.03;4973076;28;24434;-74
2022/09/05 05:34:48;;;;;;;3.85;2.13;;;;;;;13.27;100.00;96316.78;4972255;28;24432;-73
2022/09/05 05:37:20;;;;;;;2.60;2.00;;;;;;;13.37;100.00;96321.38;4968266;28;24595;-75
2022/09/05 05:39:57;;;;;;;3.97;3.38;;;;;;;13.38;100.00;96328.25;4974452;28;24991;-75
2022/09/05 05:42:24;;;;;;;3.50;3.20;;;;;;;13.49;100.00;96320.56;4974336;28;24799;-77
2022/09/05 05:44:53;;;;;;;4.07;2.58;;;;;;;13.61;100.00;96327.59;4971746;28;24946;-75
2022/09/05 05:47:23;;;;;;;3.28;2.40;;;;;;;13.74;100.00;96335.41;4974182;28;24445;-74
2022/09/05 05:50:01;;;;;;;4.95;2.70;;;;;;;13.80;100.00;96337.59;4973730;28;24471;-75
2022/09/05 05:53:01;;;;;;;2.60;2.10;;;;;;;13.85;100.00;96339.91;4970440;28;25082;-75
2022/09/05 05:55:55;;;;;;;3.22;2.30;;;;;;;13.97;100.00;96341.69;4964563;28;24445;-76
2022/09/05 05:58:44;;;;;;;3.47;2.35;;;;;;;14.13;100.00;96336.28;4967807;28;24456;-76
2022/09/05 06:01:37;;;;;;;5.20;2.78;;;;;;;14.29;100.00;96336.91;4963834;28;24449;-76
2022/09/05 06:04:41;;;;;;;3.42;2.63;;;;;;;14.40;100.00;96341.38;4968737;28;24430;-76
2022/09/05 06:07:17;;;;;;;3.40;2.50;;;;;;;14.62;100.00;96340.75;4977750;28;25040;-76
2022/09/05 06:10:03;;;;;;;3.05;2.42;;;;;;;14.81;100.00;96337.69;4967527;28;24441;-74
2022/09/05 06:13:03;;;;;;;3.00;2.70;;;;;;;14.94;100.00;96339.31;4963123;28;24791;-75
2022/09/05 06:16:00;;;;;;;3.22;2.45;;;;;;;15.03;100.00;96339.59;4970912;28;24449;-77
2022/09/05 06:19:09;;;;;;;3.83;2.65;;;;;;;15.07;100.00;96338.44;4972562;28;24480;-75
2022/09/05 06:22:27;;;;;;;6.32;2.58;;;;;;;15.10;100.00;96333.84;4963095;28;24445;-76
2022/09/05 06:25:33;;;;;;;3.50;2.80;;;;;;;15.17;100.00;96336.84;4894126;29;24432;-76
2022/09/05 06:28:15;;;;;;;3.53;2.67;;;;;;;15.12;100.00;96333.72;4893320;29;25016;-76
2022/09/05 06:30:50;;;;;;;4.80;3.38;;;;;;;15.19;100.00;96341.00;4956878;28;24440;-76
2022/09/05 06:33:37;;;;;;;6.10;3.20;;;;;;;15.14;100.00;96334.44;4972142;28;25005;-75
2022/09/05 06:36:23;;;;;;;4.13;3.25;;;;;;;15.13;100.00;96344.06;4966873;28;24438;-77
2022/09/05 06:39:05;;;;;;;9.68;3.35;;;;;;;15.07;100.00;96339.28;4972525;28;24460;-76
2022/09/05 06:41:44;;;;;;;5.35;3.30;;;;;;;15.13;100.00;96338.84;4971112;28;24442;-75
2022/09/05 06:44:34;;;;;;;4.40;3.28;;;;;;;15.31;100.00;96344.47;4964458;28;24434;-75
2022/09/05 06:47:06;;;;;;;3.28;2.97;;;;;;;15.37;100.00;96351.88;4966681;28;24549;-74
2022/09/05 06:49:48;;;;;;;6.13;3.57;;;;;;;15.41;100.00;96342.88;4964296;28;24521;-74
2022/09/05 06:52:44;;;;;;;3.77;3.30;;;;;;;15.38;100.00;96345.69;4971966;28;24445;-75
2022/09/05 06:55:37;;;;;;;5.07;3.45;;;;;;;15.87;100.00;96343.88;4939223;28;24918;-75
2022/09/05 06:58:37;;;;;;;5.75;2.92;;;;;;;16.28;100.00;96340.78;4972536;28;24456;-75
2022/09/05 07:01:06;;;;;;;10.47;3.73;;;;;;;16.60;100.00;96342.69;4972014;28;24470;-73
2022/09/05 07:03:57;;;;;;;10.40;2.97;;;;;;;16.59;100.00;96339.25;4964103;28;24441;-74
2022/09/05 07:06:30;;;;;;;7.50;3.05;;;;;;;16.82;100.00;96339.25;4971020;28;24544;-75
2022/09/05 07:09:04;;;;;;;3.08;2.78;;;;;;;17.02;100.00;96342.91;4963189;28;24439;-75
2022/09/05 07:11:39;;;;;;;5.43;3.10;;;;;;;17.13;100.00;96342.88;4971719;28;24983;-75
2022/09/05 07:14:18;;;;;;;3.90;2.53;;;;;;;17.02;100.00;96345.53;4971058;28;24512;-75
2022/09/05 07:16:52;;;;;;;4.35;2.90;;;;;;;17.13;100.00;96345.50;4969968;28;25005;-75
2022/09/05 07:19:25;;;;;;;8.93;2.80;;;;;;;17.20;100.00;96346.66;4973382;28;24815;-75
2022/09/05 07:22:14;;;;;;;3.05;2.72;;;;;;;17.27;100.00;96347.84;4962797;28;25207;-75
2022/09/05 07:24:44;;;;;;;4.75;3.15;;;;;;;17.49;100.00;96346.94;4963466;28;24445;-75
2022/09/05 07:27:13;;;;;;;3.88;2.80;;;;;;;17.70;100.00;96349.59;4964373;28;24449;-74
2022/09/05 07:29:44;;;;;;;4.28;2.72;;;;;;;17.80;100.00;96344.50;4967609;28;24426;-75
2022/09/05 07:32:17;;;;;;;7.07;2.60;;;;;;;17.95;100.00;96342.34;4964918;28;24469;-76
2022/09/05 07:34:47;;;;;;;4.13;2.25;;;;;;;18.25;100.00;96342.44;4961758;28;24457;-76
2022/09/05 07:37:19;;;;;;;3.58;2.45;;;;;;;18.52;100.00;96339.25;4971803;28;24437;-76
2022/09/05 07:39:52;;;;;;;4.25;2.33;;;;;;;18.93;100.00;96341.91;4971789;28;24461;-76
2022/09/05 07:42:26;;;;;;;3.67;2.28;;;;;;;19.23;100.00;96346.25;4971179;28;25029;-75
2022/09/05 07:44:56;;;;;;;3.08;2.30;;;;;;;19.77;100.00;96342.34;4967632;28;24438;-76
2022/09/05 07:47:28;;;;;;;2.83;2.03;;;;;;;20.26;96.48;96346.53;4969452;28;24496;-76
2022/09/05 07:49:58;;;;;;;3.17;2.10;;;;;;;20.51;92.65;96347.75;4969849;28;24444;-75
2022/09/05 07:52:26;;;;;;;3.88;2.22;;;;;;;20.70;95.06;96344.22;4968492;28;24496;-74
2022/09/05 07:54:57;;;;;;;3.58;2.00;;;;;;;20.60;90.49;96337.34;4972683;28;24492;-74
2022/09/05 07:57:28;;;;;;;3.97;2.22;;;;;;;21.10;90.73;96344.84;4975600;28;24441;-75
2022/09/05 07:59:57;;;;;;;4.17;1.97;;;;;;;21.54;86.81;96345.00;4974952;28;24450;-75
2022/09/05 08:02:25;;;;;;;5.03;2.17;;;;;;;21.26;86.35;96337.97;4975092;28;24442;-75
2022/09/05 08:04:52;;;;;;;2.72;1.90;;;;;;;21.69;85.91;96339.09;4969921;28;24440;-75
2022/09/05 08:07:23;;;;;;;4.63;2.17;;;;;;;21.93;84.02;96342.91;4973046;28;24444;-75
2022/09/05 08:09:53;;;;;;;3.38;2.03;;;;;;;22.06;83.19;96338.03;4971598;28;24444;-75
2022/09/05 08:12:24;;;;;;;8.00;2.13;;;;;;;22.50;85.41;96340.69;4966730;28;24445;-75
2022/09/05 08:15:03;;;;;;;3.92;2.03;;;;;;;22.76;78.20;96340.66;4969800;28;24532;-75
2022/09/05 08:17:33;;;;;;;5.25;2.00;;;;;;;22.30;80.47;96348.00;4963022;28;24441;-76
2022/09/05 08:20:19;;;;;;;2.75;1.80;;;;;;;22.68;79.88;96346.72;4969902;28;24512;-75
2022/09/05 08:22:49;;;;;;;4.75;2.28;;;;;;;22.79;77.55;96342.97;4960460;28;24441;-75
2022/09/05 08:25:20;;;;;;;3.58;2.10;;;;;;;22.92;79.50;96347.88;4961798;28;24973;-74
2022/09/05 08:28:01;;;;;;;10.55;2.25;;;;;;;23.15;77.48;96338.38;4966812;28;24464;-74
2022/09/05 08:30:31;;;;;;;4.35;2.00;;;;;;;23.11;77.24;96339.69;4967743;28;24817;-74
2022/09/05 08:33:04;;;;;;;2.90;1.70;;;;;;;23.38;76.19;96343.06;4971127;28;24444;-74
2022/09/05 08:35:38;;;;;;;3.10;1.60;;;;;;;23.79;73.00;96343.97;4970982;28;25009;-75
2022/09/05 08:38:07;;;;;;;6.75;1.58;;;;;;;23.59;71.97;96343.44;4967676;28;24433;-74
2022/09/05 08:40:38;;;;;;;2.63;1.70;;;;;;;23.90;73.85;96341.00;4959715;28;24434;-74
2022/09/05 08:43:14;;;;;;;2.65;1.55;;;;;;;24.24;69.52;96345.28;4968597;28;24448;-75
2022/09/05 08:45:47;;;;;;;3.20;1.60;;;;;;;23.90;70.97;96342.81;4964950;28;25026;-75
2022/09/05 08:48:23;;;;;;;2.60;1.58;;;;;;;23.76;72.13;96344.28;4970299;28;24429;-75
2022/09/05 08:51:08;;;;;;;3.85;1.80;;;;;;;24.25;71.24;96351.41;4964608;28;24437;-75
2022/09/05 08:54:00;;;;;;;4.20;1.60;;;;;;;24.35;69.75;96349.41;4965080;28;24440;-74
2022/09/05 08:56:36;;;;;;;4.00;1.80;;;;;;;24.35;68.13;96350.22;4967946;28;24442;-74
2022/09/05 08:59:21;;;;;;;2.45;1.70;;;;;;;24.45;68.50;96349.25;4967121;28;24449;-75
2022/09/05 09:02:19;;;;;;;2.33;1.70;;;;;;;24.07;69.83;96347.13;4966293;28;25018;-74
2022/09/05 09:04:55;;;;;;;2.38;1.65;;;;;;;24.24;68.38;96341.81;4969603;28;24887;-74
2022/09/05 09:07:32;;;;;;;4.45;1.52;;;;;;;24.09;69.33;96341.66;4970825;28;24570;-73
2022/09/05 09:10:05;;;;;;;2.05;1.40;;;;;;;24.42;67.98;96344.31;4966495;28;24437;-74
2022/09/05 09:12:56;;;;;;;1.95;1.38;;;;;;;24.90;65.06;96337.22;4969440;28;24975;-73
2022/09/05 09:15:29;;;;;;;2.20;1.40;;;;;;;25.14;65.92;96334.50;4968640;28;24990;-73
2022/09/05 09:17:56;;;;;;;2.47;1.58;;;;;;;25.62;62.99;96337.84;4971262;28;24429;-75
2022/09/05 09:20:35;;;;;;;2.17;1.38;;;;;;;25.92;62.87;96340.66;4970558;28;24464;-74
2022/09/05 09:23:05;;;;;;;2.33;1.38;;;;;;;26.21;61.67;96331.94;4968779;28;25088;-74
2022/09/05 09:25:38;;;;;;;2.92;1.88;;;;;;;26.08;59.63;96326.44;4959331;28;24493;-73
2022/09/05 09:28:37;;;;;;;1.73;1.40;;;;;;;26.35;61.22;96325.00;4963125;28;24437;-73
2022/09/05 09:31:12;;;;;;;3.65;1.70;;;;;;;26.49;58.61;96318.94;4959741;28;24975;-74
2022/09/05 09:33:45;;;;;;;2.53;1.30;;;;;;;26.35;56.92;96327.66;4959263;28;24443;-74
2022/09/05 09:36:31;;;;;;;2.97;1.80;;;;;;;26.39;57.82;96323.66;4962870;28;24444;-74
2022/09/05 09:39:11;;;;;;;3.00;1.55;;;;;;;26.10;56.63;96332.38;4970360;28;24449;-73
2022/09/05 09:41:53;;;;;;;3.40;1.40;;;;;;;26.68;56.74;96317.56;4963268;28;24441;-74
2022/09/05 09:45:04;;;;;;;1.30;1.20;;;;;;;26.96;53.25;96318.56;4970272;28;24440;-73
2022/09/05 09:47:56;;;;;;;2.13;1.45;;;;;;;26.50;54.52;96318.75;4970465;28;24430;-74
2022/09/05 09:50:37;;;;;;;3.97;1.60;;;;;;;26.06;54.18;96316.81;4954211;28;24448;-73
2022/09/05 09:53:20;;;;;;;2.30;1.55;;;;;;;25.83;55.70;96308.88;4966387;28;25097;-74
2022/09/05 09:56:31;;;;;;;1.85;1.48;;;;;;;25.94;53.80;96312.94;4962368;28;24449;-74
2022/09/05 09:59:39;;;;;;;4.30;1.38;;;;;;;26.11;52.96;96320.78;4937401;28;24811;-74
2022/09/05 10:02:23;;;;;;;2.07;1.27;;;;;;;26.31;52.04;96313.94;4967960;28;24449;-74
2022/09/05 10:05:25;;;;;;;2.83;1.25;;;;;;;26.67;51.55;96322.06;4972369;28;24811;-74
2022/09/05 10:08:08;;;;;;;2.45;1.30;;;;;;;26.48;52.99;96322.59;4970011;28;24513;-74
2022/09/05 10:10:58;;;;;;;3.05;1.75;;;;;;;26.36;53.06;96310.72;4969835;28;24441;-75
2022/09/05 10:13:34;;;;;;;4.80;1.60;;;;;;;27.05;55.48;96305.16;4972595;28;24437;-74
2022/09/05 10:16:33;;;;;;;4.20;1.40;;;;;;;27.10;51.78;96300.09;4972019;28;24426;-75
2022/09/05 10:19:23;;;;;;;5.07;1.33;;;;;;;27.54;53.37;96302.66;4972403;28;25127;-74
2022/09/05 10:22:10;;;;;;;2.10;1.25;;;;;;;27.76;53.14;96295.53;4961901;28;24449;-76
2022/09/05 10:25:02;;;;;;;2.83;1.50;;;;;;;27.37;50.57;96295.97;4972231;28;25022;-79
2022/09/05 10:27:42;;;;;;;2.50;1.30;;;;;;;27.13;50.88;96289.13;4969219;28;24445;-74
2022/09/05 10:30:19;;;;;;;1.73;1.40;;;;;;;27.33;51.28;96286.69;4969782;28;24429;-74
2022/09/05 10:33:10;;;;;;;3.70;1.70;;;;;;;27.81;48.09;96292.28;4973091;28;24484;-75
2022/09/05 10:35:42;;;;;;;3.28;1.42;;;;;;;27.55;43.52;96285.72;4965895;28;24438;-74
2022/09/05 10:38:12;;;;;;;2.85;1.20;;;;;;;27.36;42.44;96284.47;4973401;28;24812;-74
2022/09/05 10:40:43;;;;;;;2.20;1.30;;;;;;;27.68;44.60;96279.69;4970970;28;24630;-73
2022/09/05 10:43:21;;;;;;;2.30;1.40;;;;;;;27.91;42.19;96282.97;4972318;28;24601;-74
2022/09/05 10:45:59;;;;;;;4.13;1.10;;;;;;;27.65;39.12;96278.22;4972945;28;24545;-74
2022/09/05 10:48:28;;;;;;;3.17;1.20;;;;;;;27.81;42.80;96285.16;4972541;28;24816;-74
2022/09/05 10:51:00;;;;;;;3.20;1.38;;;;;;;27.52;40.66;96278.09;4970203;28;24448;-74
2022/09/05 10:53:38;;;;;;;2.37;1.40;;;;;;;27.63;44.23;96280.25;4969765;28;24453;-74
2022/09/05 10:56:11;;;;;;;2.70;1.20;;;;;;;28.22;39.87;96279.13;4961382;28;24991;-74
2022/09/05 10:59:00;;;;;;;5.15;1.25;;;;;;;27.37;42.50;96278.16;4972094;28;24449;-74
2022/09/05 11:01:33;;;;;;;2.75;1.45;;;;;;;27.32;49.44;96285.03;4971685;28;24449;-75
2022/09/05 11:04:12;;;;;;;2.30;1.40;;;;;;;27.66;46.87;96279.03;4975978;28;24440;-75
2022/09/05 11:06:53;;;;;;;2.67;1.50;;;;;;;27.69;46.24;96283.97;4983912;28;24533;-75
2022/09/05 11:09:31;;;;;;;2.10;1.40;;;;;;;27.65;43.72;96278.22;4970648;28;24489;-74
2022/09/05 11:12:27;;;;;;;2.17;1.17;;;;;;;27.70;42.97;96270.50;4970253;28;24860;-74
2022/09/05 11:14:58;;;;;;;2.70;1.35;;;;;;;27.37;42.55;96270.19;4970477;28;24452;-74
2022/09/05 11:17:30;;;;;;;4.75;1.35;;;;;;;27.26;43.08;96273.34;4970342;28;24440;-75
2022/09/05 11:20:19;;;;;;;2.33;1.20;;;;;;;27.74;45.13;96263.81;4972263;28;24453;-75
2022/09/05 11:22:48;;;;;;;3.00;1.60;;;;;;;28.18;47.58;96259.22;4968070;28;24453;-73
2022/09/05 11:25:20;;;;;;;2.80;1.53;;;;;;;28.09;46.58;96261.22;4969869;28;25304;-73
2022/09/05 11:27:50;;;;;;;4.68;1.85;;;;;;;28.25;50.14;96262.75;4972267;28;24445;-73
2022/09/05 11:30:20;;;;;;;4.22;1.50;;;;;;;28.04;43.87;96265.47;4969730;28;24434;-74
2022/09/05 11:33:03;;;;;;;5.13;1.70;;;;;;;28.28;49.51;96261.53;4970418;28;24442;-73
2022/09/05 11:35:33;;;;;;;3.38;1.65;;;;;;;27.81;43.54;96263.03;4970441;28;24788;-74
2022/09/05 11:38:35;;;;;;;2.65;1.40;;;;;;;27.39;45.74;96262.00;4971886;28;25010;-75
2022/09/05 11:41:37;;;;;;;2.60;1.70;;;;;;;27.56;45.84;96267.91;4967581;28;24893;-74
2022/09/05 11:44:26;;;;;;;3.50;1.50;;;;;;;27.52;44.58;96254.16;4949003;28;25134;-74
2022/09/05 11:47:20;;;;;;;4.85;1.60;;;;;;;27.17;45.69;96264.63;4966881;28;24430;-74
2022/09/05 11:50:19;;;;;;;3.55;1.50;;;;;;;27.00;49.05;96263.19;4970266;28;24518;-74
2022/09/05 11:53:18;;;;;;;2.10;1.50;;;;;;;26.92;49.32;96256.16;4963746;28;24453;-73
2022/09/05 11:56:13;;;;;;;2.92;1.60;;;;;;;26.38;50.24;96255.63;4970862;28;24440;-74
2022/09/05 11:59:02;;;;;;;3.08;1.50;;;;;;;25.80;50.39;96256.16;4970588;28;24445;-75
2022/09/05 12:01:41;;;;;;;3.30;1.50;;;;;;;25.52;52.57;96253.22;4970412;28;24978;-74
2022/09/05 12:04:27;;;;;;;1.80;1.38;;;;;;;25.38;52.13;96254.00;4968534;28;24484;-74
2022/09/05 12:07:19;;;;;;;3.83;1.42;;;;;;;25.33;51.94;96254.53;4971482;28;24796;-75
2022/09/05 12:10:02;;;;;;;2.13;1.60;;;;;;;25.34;52.78;96242.91;4969811;28;24525;-75
2022/09/05 12:12:35;;;;;;;1.95;1.52;;;;;;;25.58;50.47;96246.38;4971463;28;24454;-75
2022/09/05 12:15:11;;;;;;;2.47;1.60;;;;;;;25.66;50.44;96241.03;4959661;28;24441;-74
2022/09/05 12:17:47;;;;;;;2.22;1.63;;;;;;;25.72;49.88;96239.47;4966385;28;24437;-74
2022/09/05 12:20:21;;;;;;;2.50;1.63;;;;;;;25.70;53.03;96236.19;4971574;28;24841;-74
2022/09/05 12:22:55;;;;;;;2.35;1.50;;;;;;;25.75;49.87;96236.47;4971483;28;24453;-75
2022/09/05 12:25:28;;;;;;;2.55;1.42;;;;;;;25.77;47.80;96235.28;4971867;28;24796;-75
2022/09/05 12:27:58;;;;;;;2.30;1.48;;;;;;;25.79;51.51;96235.13;4969110;28;24442;-74
2022/09/05 12:30:27;;;;;;;2.28;1.60;;;;;;;26.58;50.32;96232.81;4971644;28;24429;-74